Time;durP1;ratioP1;P1;durP2;ratioP2;P2;SDS_P1;SDS_P2;PMS_P1;PMS_P2;Temp;Humidity;BMP_temperature;BMP_pressure;BME280_temperature;BME280_humidity;BME280_pressure;Samples;Min_cycle;Max_cycle;Signal;HPM_P1;HPM_P2
2022/11/10 00:00:58;;;;;;;7.30;5.10;;;;;;;13.50;100.00;98547.00;5138759;23;20573;-87
2022/11/10 00:03:20;;;;;;;6.97;5.60;;;;;;;13.48;100.00;98544.47;5139092;23;20605;-88
2022/11/10 00:05:43;;;;;;;6.60;4.77;;;;;;;13.49;100.00;98554.03;5139430;23;20579;-87
2022/11/10 00:08:07;;;;;;;8.77;5.10;;;;;;;13.50;100.00;98549.63;5138350;23;20661;-87
2022/11/10 00:10:29;;;;;;;8.20;5.23;;;;;;;13.48;100.00;98551.53;5140384;23;20647;-87
2022/11/10 00:12:52;;;;;;;11.00;6.63;;;;;;;13.47;100.00;98545.44;5139458;23;20574;-87
2022/11/10 00:17:53;;;;;;;7.23;5.13;;;;;;;13.45;100.00;98563.03;5137887;23;21125;-88
2022/11/10 00:20:15;;;;;;;7.73;4.70;;;;;;;13.46;100.00;98556.03;5140211;23;20662;-87
2022/11/10 00:22:39;;;;;;;7.87;6.00;;;;;;;13.48;100.00;98564.63;5137890;23;20662;-87
2022/11/10 00:25:01;;;;;;;11.37;4.80;;;;;;;13.47;100.00;98562.94;5139260;23;20936;-87
2022/11/10 00:27:22;;;;;;;9.73;6.20;;;;;;;13.48;100.00;98568.06;5144747;23;20576;-87
2022/11/10 00:29:45;;;;;;;8.37;5.27;;;;;;;13.47;100.00;98565.56;5138083;23;20602;-87
2022/11/10 00:32:07;;;;;;;5.77;5.10;;;;;;;13.48;100.00;98573.31;5138463;23;20578;-88
2022/11/10 00:34:29;;;;;;;7.10;5.30;;;;;;;13.49;100.00;98571.53;5138771;23;20615;-88
2022/11/10 00:36:51;;;;;;;7.93;5.10;;;;;;;13.48;100.00;98565.44;5139131;23;21108;-87
2022/11/10 00:39:14;;;;;;;7.20;5.73;;;;;;;13.49;100.00;98571.53;5139407;23;20576;-87
2022/11/10 00:41:36;;;;;;;8.17;5.43;;;;;;;13.50;100.00;98570.56;5138649;23;20578;-87
2022/11/10 00:43:57;;;;;;;9.40;5.80;;;;;;;13.49;100.00;98571.53;5139899;23;21094;-87
2022/11/10 00:46:19;;;;;;;8.67;5.80;;;;;;;13.47;100.00;98571.66;5139709;23;20599;-88
2022/11/10 00:48:41;;;;;;;10.10;5.60;;;;;;;13.45;100.00;98576.16;5138686;23;20604;-87
2022/11/10 00:51:04;;;;;;;7.07;5.73;;;;;;;13.43;100.00;98574.59;5140216;23;20613;-88
2022/11/10 00:53:25;;;;;;;8.40;5.60;;;;;;;13.39;100.00;98575.75;5139801;23;20658;-88
2022/11/10 00:55:48;;;;;;;7.50;6.07;;;;;;;13.35;100.00;98583.00;5137561;23;20657;-86
2022/11/10 00:58:10;;;;;;;12.13;5.93;;;;;;;13.34;100.00;98585.75;5140647;22;20568;-86
2022/11/10 01:00:32;;;;;;;10.53;6.17;;;;;;;13.34;100.00;98593.59;5139052;23;20583;-86
2022/11/10 01:02:53;;;;;;;10.23;6.20;;;;;;;13.35;100.00;98597.88;5137555;23;20582;-86
2022/11/10 01:05:14;;;;;;;11.03;5.83;;;;;;;13.36;100.00;98602.19;5138151;23;20659;-86
2022/11/10 01:07:36;;;;;;;10.50;5.80;;;;;;;13.37;100.00;98598.63;5139607;23;20633;-86
2022/11/10 01:09:58;;;;;;;9.90;5.87;;;;;;;13.37;100.00;98604.69;5138520;23;21118;-87
2022/11/10 01:12:21;;;;;;;8.70;5.90;;;;;;;13.37;100.00;98603.88;5137877;23;20570;-86
2022/11/10 01:14:43;;;;;;;8.80;6.07;;;;;;;13.36;100.00;98605.63;5138767;22;21182;-86
2022/11/10 01:17:05;;;;;;;7.13;5.73;;;;;;;13.37;100.00;98617.78;5137745;23;20576;-86
2022/11/10 01:19:27;;;;;;;10.50;5.17;;;;;;;13.36;100.00;98613.50;5140609;23;20652;-86
2022/11/10 01:21:50;;;;;;;10.20;6.20;;;;;;;13.35;100.00;98624.06;5139923;23;20591;-86
2022/11/10 01:24:12;;;;;;;10.87;6.07;;;;;;;13.33;100.00;98616.31;5138286;23;20582;-86
2022/11/10 01:26:33;;;;;;;10.27;6.03;;;;;;;13.31;100.00;98623.47;5139355;23;20567;-86
2022/11/10 01:28:57;;;;;;;7.30;5.40;;;;;;;13.31;100.00;98620.03;5138135;23;21185;-85
2022/11/10 01:31:20;;;;;;;9.13;5.70;;;;;;;13.29;100.00;98624.50;5138054;23;20973;-85
2022/11/10 01:33:41;;;;;;;8.37;5.70;;;;;;;13.28;100.00;98631.53;5140973;22;20604;-86
2022/11/10 01:36:04;;;;;;;10.07;6.23;;;;;;;13.27;100.00;98635.09;5140108;23;21149;-86
2022/11/10 01:38:27;;;;;;;9.60;5.93;;;;;;;13.28;100.00;98641.19;5138597;23;20649;-86
2022/11/10 01:40:49;;;;;;;10.93;6.70;;;;;;;13.30;100.00;98647.16;5138623;23;20570;-85
2022/11/10 01:43:11;;;;;;;12.20;6.53;;;;;;;13.32;100.00;98640.00;5137578;23;21125;-85
2022/11/10 01:45:47;;;;;;;11.90;6.43;;;;;;;13.33;100.00;98641.69;5139901;23;20596;-86
2022/11/10 01:48:12;;;;;;;9.90;6.50;;;;;;;13.34;100.00;98646.00;5140017;23;20570;-86
2022/11/10 01:50:36;;;;;;;9.43;5.67;;;;;;;13.33;100.00;98645.16;5138582;23;20584;-86
2022/11/10 01:53:02;;;;;;;9.27;5.50;;;;;;;13.34;100.00;98640.75;5139452;23;21145;-86
2022/11/10 01:55:24;;;;;;;8.23;5.80;;;;;;;13.34;100.00;98638.97;5138294;23;21139;-85
2022/11/10 01:57:46;;;;;;;7.53;6.07;;;;;;;13.34;100.00;98646.81;5139051;23;20579;-86
2022/11/10 02:00:09;;;;;;;9.60;6.47;;;;;;;13.34;100.00;98656.47;5138680;23;20685;-86
2022/11/10 02:02:38;;;;;;;8.67;5.60;;;;;;;13.31;100.00;98647.03;5137508;23;20655;-86
2022/11/10 02:05:00;;;;;;;9.83;6.20;;;;;;;13.30;100.00;98652.38;5138739;23;20996;-85
2022/11/10 02:07:22;;;;;;;8.00;5.90;;;;;;;13.28;100.00;98657.75;5139185;23;20611;-85
2022/11/10 02:09:44;;;;;;;8.73;6.03;;;;;;;13.28;100.00;98657.75;5139392;22;20635;-86
2022/11/10 02:12:06;;;;;;;9.03;6.40;;;;;;;13.27;100.00;98657.84;5139590;22;20598;-86
2022/11/10 02:14:29;;;;;;;12.70;6.83;;;;;;;13.25;100.00;98664.97;5137691;23;20619;-86
2022/11/10 02:16:51;;;;;;;10.07;6.40;;;;;;;13.24;100.00;98660.69;5116401;23;20952;-86
2022/11/10 02:19:18;;;;;;;7.83;6.43;;;;;;;13.21;100.00;98669.59;5139677;23;21121;-86
2022/11/10 02:21:42;;;;;;;8.30;6.10;;;;;;;13.20;100.00;98674.94;5138807;23;20629;-86
2022/11/10 02:24:04;;;;;;;6.40;5.80;;;;;;;13.19;100.00;98673.25;5138180;23;21452;-86
2022/11/10 02:26:28;;;;;;;7.70;5.83;;;;;;;13.18;100.00;98676.81;5138466;23;20574;-86
2022/11/10 02:28:50;;;;;;;8.90;6.60;;;;;;;13.16;100.00;98675.28;5137108;23;20580;-86
2022/11/10 02:31:11;;;;;;;7.03;5.90;;;;;;;13.12;100.00;98679.03;5139380;22;20955;-86
2022/11/10 02:33:33;;;;;;;8.93;6.90;;;;;;;13.11;100.00;98683.44;5139412;23;20573;-86
2022/11/10 02:35:55;;;;;;;13.73;6.90;;;;;;;13.10;100.00;98688.78;5137968;23;21576;-86
2022/11/10 02:38:18;;;;;;;8.20;5.83;;;;;;;13.10;100.00;98691.41;5138513;23;20578;-86
2022/11/10 02:40:40;;;;;;;9.97;6.07;;;;;;;13.11;100.00;98695.69;5137945;23;20661;-86
2022/11/10 02:43:02;;;;;;;9.43;6.53;;;;;;;13.12;100.00;98697.38;5138085;23;21073;-86
2022/11/10 02:45:23;;;;;;;8.60;6.23;;;;;;;13.12;100.00;98692.13;5138148;23;20665;-86
2022/11/10 02:47:45;;;;;;;9.30;6.27;;;;;;;13.11;100.00;98700.91;5138404;23;20981;-86
2022/11/10 02:50:07;;;;;;;7.90;6.30;;;;;;;13.10;100.00;98694.84;5138311;23;20622;-86
2022/11/10 02:52:29;;;;;;;8.47;6.83;;;;;;;13.10;100.00;98699.25;5140674;22;20579;-86
2022/11/10 02:54:52;;;;;;;6.80;5.90;;;;;;;13.06;100.00;98696.00;5138998;23;20599;-86
2022/11/10 02:57:13;;;;;;;8.40;6.83;;;;;;;13.06;100.00;98705.66;5139454;23;20559;-86
2022/11/10 02:59:35;;;;;;;8.10;6.03;;;;;;;13.05;100.00;98706.56;5138720;23;20598;-86
2022/11/10 03:01:57;;;;;;;10.77;5.77;;;;;;;13.04;100.00;98715.41;5138438;23;20570;-86
2022/11/10 03:04:18;;;;;;;16.00;6.57;;;;;;;13.03;100.00;98719.78;5137376;23;20713;-86
2022/11/10 03:06:39;;;;;;;11.23;6.93;;;;;;;13.03;100.00;98730.25;5138522;23;20636;-86
2022/11/10 03:09:01;;;;;;;9.50;6.07;;;;;;;13.02;100.00;98725.97;5138185;23;20592;-86
2022/11/10 03:11:25;;;;;;;11.40;6.50;;;;;;;13.01;100.00;98729.53;5137880;23;20582;-86
2022/11/10 03:13:56;;;;;;;10.97;7.23;;;;;;;12.99;100.00;98731.41;5138033;23;20574;-86
2022/11/10 03:16:23;;;;;;;8.10;6.30;;;;;;;12.99;100.00;98734.03;5137214;23;20607;-87
2022/11/10 03:18:45;;;;;;;9.60;6.30;;;;;;;12.99;100.00;98746.28;5138503;23;20579;-86
2022/11/10 03:21:06;;;;;;;11.00;7.57;;;;;;;12.98;100.00;98742.81;5137941;23;20629;-87
2022/11/10 03:23:28;;;;;;;8.60;6.47;;;;;;;12.98;100.00;98749.84;5138049;23;20563;-86
2022/11/10 03:25:49;;;;;;;9.77;7.13;;;;;;;12.96;100.00;98749.09;5136581;23;20579;-86
2022/11/10 03:28:13;;;;;;;7.57;6.40;;;;;;;12.93;100.00;98750.16;5137597;23;21181;-86
2022/11/10 03:30:34;;;;;;;7.70;5.77;;;;;;;12.92;100.00;98753.72;5138940;23;20575;-86
2022/11/10 03:32:56;;;;;;;8.77;5.70;;;;;;;12.89;100.00;98748.66;5139112;23;20581;-86
2022/11/10 03:35:17;;;;;;;11.07;6.20;;;;;;;12.89;100.00;98748.66;5138407;23;20677;-86
2022/11/10 03:37:40;;;;;;;10.63;6.90;;;;;;;12.87;100.00;98766.28;5140943;23;20595;-87
2022/11/10 03:40:02;;;;;;;8.73;6.27;;;;;;;12.88;100.00;98767.09;5139083;23;20595;-86
2022/11/10 03:42:24;;;;;;;15.20;6.47;;;;;;;12.85;100.00;98765.53;5138385;23;21105;-87
2022/11/10 03:44:47;;;;;;;10.53;6.97;;;;;;;12.85;100.00;98767.31;5138352;23;21279;-86
2022/11/10 03:47:08;;;;;;;10.40;6.60;;;;;;;12.85;100.00;98768.16;5139277;22;20570;-86
2022/11/10 03:49:31;;;;;;;10.00;6.73;;;;;;;12.86;100.00;98771.63;5139094;23;20578;-86
2022/11/10 03:51:52;;;;;;;8.03;6.43;;;;;;;12.85;100.00;98777.78;5138612;23;20571;-86
2022/11/10 03:54:13;;;;;;;7.60;6.70;;;;;;;12.82;100.00;98768.38;5139605;22;20596;-86
2022/11/10 03:56:35;;;;;;;7.10;5.90;;;;;;;12.80;100.00;98775.44;5138608;23;21201;-87
2022/11/10 03:58:57;;;;;;;12.70;7.00;;;;;;;12.78;100.00;98774.69;5138325;23;20575;-86
2022/11/10 04:01:20;;;;;;;12.80;7.23;;;;;;;12.79;100.00;98773.78;5139265;23;20569;-87
2022/11/10 04:03:41;;;;;;;8.70;7.47;;;;;;;12.79;100.00;98779.00;5139980;23;21136;-86
2022/11/10 04:08:59;;;;;;;11.63;6.90;;;;;;;12.81;100.00;98792.81;5137978;23;20577;-87
2022/11/10 04:16:37;;;;;;;10.83;6.30;;;;;;;12.77;100.00;98799.19;5138791;23;20700;-87
2022/11/10 04:18:59;;;;;;;11.60;6.97;;;;;;;12.78;100.00;98805.28;5137765;23;20581;-86
2022/11/10 04:21:21;;;;;;;10.93;6.60;;;;;;;12.78;100.00;98807.91;5140196;23;20614;-87
2022/11/10 04:23:42;;;;;;;11.33;6.87;;;;;;;12.79;100.00;98815.66;5139361;23;21119;-86
2022/11/10 04:28:45;;;;;;;11.83;6.13;;;;;;;12.80;100.00;98824.34;5141145;22;20603;-87
2022/11/10 04:31:08;;;;;;;12.07;7.93;;;;;;;12.80;100.00;98826.97;5138781;23;20585;-86
2022/11/10 04:33:31;;;;;;;7.30;6.17;;;;;;;12.80;100.00;98840.88;5141727;23;21142;-86
2022/11/10 04:35:53;;;;;;;10.63;6.67;;;;;;;12.81;100.00;98837.31;5141525;23;20604;-86
2022/11/10 04:38:15;;;;;;;7.70;6.60;;;;;;;12.82;100.00;98840.78;5139432;23;20561;-87
2022/11/10 04:40:36;;;;;;;9.77;6.30;;;;;;;12.81;100.00;98834.72;5138658;23;20593;-86
2022/11/10 04:42:57;;;;;;;7.23;6.20;;;;;;;12.76;100.00;98831.56;5139752;22;21121;-86
2022/11/10 04:45:19;;;;;;;11.40;6.73;;;;;;;12.76;100.00;98842.03;5139407;23;20690;-86
2022/11/10 04:47:43;;;;;;;10.03;6.27;;;;;;;12.75;100.00;98842.97;5139164;23;20641;-87
2022/11/10 04:50:07;;;;;;;10.40;6.70;;;;;;;12.73;100.00;98844.84;5138591;23;20594;-87
2022/11/10 04:52:28;;;;;;;9.40;7.33;;;;;;;12.71;100.00;98838.84;5138557;23;20896;-86
2022/11/10 04:54:50;;;;;;;8.70;6.60;;;;;;;12.71;100.00;98857.19;5139818;23;20624;-87
2022/11/10 04:57:11;;;;;;;9.40;6.60;;;;;;;12.71;100.00;98864.19;5138008;23;20652;-86
2022/11/10 04:59:33;;;;;;;10.07;6.67;;;;;;;12.68;100.00;98860.94;5138899;23;20616;-86
2022/11/10 05:01:55;;;;;;;12.73;6.30;;;;;;;12.66;100.00;98860.19;5140531;23;20578;-85
2022/11/10 05:04:16;;;;;;;10.60;6.50;;;;;;;12.61;100.00;98868.31;5139113;23;20621;-86
2022/11/10 05:06:39;;;;;;;9.63;5.83;;;;;;;12.57;100.00;98876.47;5140896;23;20585;-87
2022/11/10 05:09:01;;;;;;;12.67;6.23;;;;;;;12.54;100.00;98879.28;5138750;23;20586;-86
2022/11/10 05:11:22;;;;;;;12.50;6.30;;;;;;;12.50;100.00;98880.44;5137589;23;20602;-87
2022/11/10 05:13:45;;;;;;;9.80;6.27;;;;;;;12.45;100.00;98882.50;5139164;23;20578;-86
2022/11/10 05:16:07;;;;;;;8.70;6.20;;;;;;;12.40;100.00;98881.94;5139682;23;20585;-86
2022/11/10 05:18:29;;;;;;;11.00;5.67;;;;;;;12.35;100.00;98891.88;5139190;23;20898;-86
2022/11/10 05:20:52;;;;;;;10.00;6.00;;;;;;;12.30;100.00;98884.28;5138033;23;20715;-87
2022/11/10 05:25:54;;;;;;;12.70;5.80;;;;;;;12.20;100.00;98892.81;5138274;23;20574;-86
2022/11/10 05:28:16;;;;;;;10.63;5.40;;;;;;;12.17;100.00;98885.16;5138068;23;20586;-86
2022/11/10 05:30:38;;;;;;;10.13;6.23;;;;;;;12.12;100.00;98894.22;5138980;23;20582;-86
2022/11/10 05:33:00;;;;;;;10.43;5.90;;;;;;;12.06;100.00;98900.69;5138872;23;20566;-86
2022/11/10 05:35:21;;;;;;;11.90;6.63;;;;;;;12.04;100.00;98904.31;5140547;23;21101;-86
2022/11/10 05:37:43;;;;;;;9.10;5.70;;;;;;;12.01;100.00;98907.09;5140582;23;20601;-86
2022/11/10 05:40:07;;;;;;;12.10;6.17;;;;;;;11.98;100.00;98902.94;5139944;23;20935;-87
2022/11/10 05:42:30;;;;;;;11.13;5.90;;;;;;;11.94;100.00;98901.41;5136232;23;21157;-86
2022/11/10 05:44:52;;;;;;;9.07;6.70;;;;;;;11.92;100.00;98900.69;5138582;23;20578;-86
2022/11/10 05:47:13;;;;;;;10.87;6.13;;;;;;;11.86;100.00;98901.06;5140034;23;20569;-86
2022/11/10 05:49:35;;;;;;;8.83;6.17;;;;;;;11.83;100.00;98893.41;5140705;23;20920;-86
2022/11/10 05:51:58;;;;;;;9.37;6.13;;;;;;;11.80;100.00;98888.34;5139412;23;20581;-86
2022/11/10 05:54:21;;;;;;;6.73;5.10;;;;;;;11.77;100.00;98901.59;5138400;23;20569;-87
2022/11/10 05:56:44;;;;;;;5.67;5.07;;;;;;;11.75;100.00;98900.84;5139187;23;20585;-86
2022/11/10 05:59:06;;;;;;;11.43;6.67;;;;;;;11.74;100.00;98913.16;5138591;23;20612;-86
2022/11/10 06:01:28;;;;;;;9.43;5.93;;;;;;;11.71;100.00;98923.78;5139188;23;20582;-87
2022/11/10 06:03:50;;;;;;;10.10;6.83;;;;;;;11.69;100.00;98926.50;5140271;23;21008;-87
2022/11/10 06:06:11;;;;;;;9.53;6.43;;;;;;;11.68;100.00;98919.63;5140340;23;21125;-87
2022/11/10 06:08:35;;;;;;;12.47;5.90;;;;;;;11.66;100.00;98925.84;5137602;23;20584;-86
2022/11/10 06:10:57;;;;;;;8.83;6.13;;;;;;;11.64;100.00;98933.78;5136038;23;20589;-87
2022/11/10 06:13:20;;;;;;;10.13;6.60;;;;;;;11.63;100.00;98942.53;5137255;23;20577;-85
2022/11/10 06:15:42;;;;;;;7.17;6.17;;;;;;;11.65;100.00;98943.31;5137556;22;20573;-85
2022/11/10 06:18:11;;;;;;;8.97;6.97;;;;;;;11.65;100.00;98958.13;5138573;23;20682;-85
2022/11/10 06:20:32;;;;;;;8.47;5.77;;;;;;;11.62;100.00;98966.16;5138894;23;20570;-85
2022/11/10 06:22:59;;;;;;;8.00;6.10;;;;;;;11.60;99.67;98968.00;5138704;23;20617;-85
2022/11/10 06:25:21;;;;;;;9.13;5.60;;;;;;;11.59;100.00;98972.41;5139263;23;21173;-85
2022/11/10 06:27:44;;;;;;;8.70;5.57;;;;;;;11.58;100.00;98975.94;5140255;23;21519;-84
2022/11/10 06:30:09;;;;;;;7.97;6.03;;;;;;;11.58;99.63;98980.34;5139936;23;20673;-85
2022/11/10 06:32:30;;;;;;;6.60;6.00;;;;;;;11.59;100.00;98982.00;5138529;23;20598;-85
2022/11/10 06:34:52;;;;;;;10.40;7.00;;;;;;;11.59;99.17;98980.25;5138400;23;20574;-85
2022/11/10 06:37:20;;;;;;;11.60;7.47;;;;;;;11.59;100.00;98988.09;5138423;23;20582;-85
2022/11/10 06:39:42;;;;;;;9.47;7.77;;;;;;;11.62;100.00;98992.28;5140428;23;20593;-84
2022/11/10 06:42:04;;;;;;;11.73;9.50;;;;;;;11.63;99.86;99000.03;5137975;23;20585;-86
2022/11/10 06:44:26;;;;;;;11.67;10.47;;;;;;;11.67;100.00;99009.38;5134547;23;20589;-86
2022/11/10 06:46:48;;;;;;;9.70;8.23;;;;;;;11.70;100.00;99017.03;5138242;23;20570;-85
2022/11/10 06:49:10;;;;;;;21.67;18.23;;;;;;;11.76;99.80;99027.97;5137636;23;20589;-87
2022/11/10 06:51:32;;;;;;;21.03;15.73;;;;;;;11.86;100.00;99044.81;5138093;23;20565;-86
2022/11/10 06:53:54;;;;;;;12.07;10.20;;;;;;;11.98;100.00;99051.94;5138167;23;20926;-86
2022/11/10 06:56:15;;;;;;;18.57;15.10;;;;;;;12.10;99.72;99045.13;5137076;23;20957;-86
2022/11/10 06:58:37;;;;;;;16.50;13.60;;;;;;;12.21;99.99;99054.03;5138922;23;20982;-87
2022/11/10 07:00:59;;;;;;;10.77;8.60;;;;;;;12.31;98.66;99060.38;5138599;23;20578;-88
2022/11/10 07:03:22;;;;;;;15.10;12.83;;;;;;;12.41;98.66;99062.34;5138003;23;20613;-88
2022/11/10 07:05:44;;;;;;;11.73;6.97;;;;;;;12.52;98.37;99053.88;5139750;23;20586;-89
2022/11/10 07:08:08;;;;;;;6.87;6.13;;;;;;;12.59;97.96;99074.34;5140357;23;20667;-88
2022/11/10 07:10:30;;;;;;;7.83;7.03;;;;;;;12.69;97.64;99091.19;5140873;22;20581;-88
2022/11/10 07:12:57;;;;;;;10.87;8.40;;;;;;;12.84;98.16;99090.28;5138427;23;20597;-89
2022/11/10 07:15:18;;;;;;;11.97;9.77;;;;;;;13.00;97.37;99096.25;5137608;23;20584;-88
2022/11/10 07:17:40;;;;;;;11.30;8.70;;;;;;;13.14;96.76;99102.31;5139965;23;20606;-88
2022/11/10 07:20:03;;;;;;;9.50;8.40;;;;;;;13.27;97.48;99108.44;5140642;23;20641;-88
2022/11/10 07:22:25;;;;;;;9.53;8.27;;;;;;;13.40;97.00;99112.81;5140618;23;20535;-89
2022/11/10 07:24:47;;;;;;;13.40;9.77;;;;;;;13.55;95.58;99113.66;5142940;23;20596;-89
2022/11/10 07:27:08;;;;;;;11.53;9.40;;;;;;;13.71;96.31;99117.78;5140208;23;20549;-88
2022/11/10 07:29:30;;;;;;;14.53;8.57;;;;;;;13.86;96.00;99127.28;5140285;23;20665;-87
2022/11/10 07:31:53;;;;;;;14.13;7.40;;;;;;;13.98;95.50;99116.00;5139453;23;20569;-89
2022/11/10 07:34:14;;;;;;;8.87;7.10;;;;;;;14.10;96.21;99125.72;5140437;23;20569;-88
2022/11/10 07:36:37;;;;;;;11.33;7.80;;;;;;;14.21;96.53;99116.22;5141399;23;21161;-90
2022/11/10 07:38:59;;;;;;;9.57;6.93;;;;;;;14.32;94.75;99129.44;5140779;23;20607;-90
2022/11/10 07:41:20;;;;;;;11.83;8.00;;;;;;;14.36;96.10;99133.56;5141729;23;20583;-90
2022/11/10 07:43:41;;;;;;;11.57;7.27;;;;;;;14.38;94.28;99132.50;5142599;22;20651;-89
2022/11/10 07:46:03;;;;;;;10.73;6.70;;;;;;;14.50;95.36;99149.22;5140314;23;20599;-89
2022/11/10 07:48:25;;;;;;;8.73;6.73;;;;;;;14.64;95.82;99157.84;5143487;22;20640;-89
2022/11/10 07:50:46;;;;;;;8.13;6.40;;;;;;;14.77;95.13;99156.91;5141350;23;20583;-89
2022/11/10 07:53:11;;;;;;;12.67;6.30;;;;;;;14.73;94.17;99163.34;5141257;23;20599;-90
2022/11/10 07:55:34;;;;;;;9.10;6.53;;;;;;;14.67;93.48;99166.38;5140404;23;20678;-89
2022/11/10 07:57:57;;;;;;;10.27;6.60;;;;;;;14.43;93.91;99158.44;5142129;23;20935;-91
2022/11/10 08:00:19;;;;;;;9.37;6.47;;;;;;;14.24;93.54;99168.50;5140817;23;20575;-90
2022/11/10 08:02:41;;;;;;;10.87;6.73;;;;;;;14.18;93.33;99163.66;5141398;23;20584;-90
2022/11/10 08:05:03;;;;;;;11.30;7.20;;;;;;;14.23;93.71;99166.81;5141881;23;20623;-90
2022/11/10 08:07:25;;;;;;;9.30;6.60;;;;;;;14.15;94.49;99171.72;5141901;23;20584;-90
2022/11/10 08:09:49;;;;;;;10.53;5.83;;;;;;;13.96;93.70;99168.56;5142872;23;20579;-90
2022/11/10 08:12:11;;;;;;;8.33;6.77;;;;;;;13.82;93.47;99165.16;5140830;23;20574;-89
2022/11/10 08:14:32;;;;;;;9.07;7.17;;;;;;;13.91;94.11;99173.25;5142608;23;20582;-91
2022/11/10 08:16:54;;;;;;;9.27;6.70;;;;;;;14.15;95.05;99182.22;5139641;23;20691;-91
2022/11/10 08:19:16;;;;;;;10.40;6.80;;;;;;;14.34;95.40;99198.41;5141191;23;20658;-91
2022/11/10 08:21:37;;;;;;;11.13;6.73;;;;;;;14.54;93.96;99197.94;5141585;23;21142;-90
2022/11/10 08:23:59;;;;;;;9.20;7.10;;;;;;;14.70;95.16;99205.56;5139311;23;20664;-88
2022/11/10 08:26:22;;;;;;;10.70;7.37;;;;;;;14.84;95.31;99210.72;5140963;23;20584;-90
2022/11/10 08:28:44;;;;;;;16.13;7.63;;;;;;;14.94;93.70;99209.13;5148429;23;20606;-89
2022/11/10 08:31:06;;;;;;;8.27;6.53;;;;;;;15.01;92.76;99210.41;5147092;23;20611;-90
2022/11/10 08:33:28;;;;;;;10.63;6.67;;;;;;;15.12;93.85;99210.50;5140204;23;20678;-88
2022/11/10 08:35:51;;;;;;;14.27;7.10;;;;;;;15.20;93.34;99205.63;5139037;23;21248;-87
2022/11/10 08:38:13;;;;;;;9.87;7.00;;;;;;;15.26;93.20;99205.16;5139539;23;20629;-88
2022/11/10 08:40:35;;;;;;;13.43;8.40;;;;;;;15.33;94.23;99209.06;5139709;23;20622;-87
2022/11/10 08:42:59;;;;;;;18.87;6.70;;;;;;;15.41;93.90;99209.38;5139434;23;20620;-87
2022/11/10 08:45:21;;;;;;;10.47;6.20;;;;;;;15.47;92.28;99212.44;5139660;23;21138;-89
2022/11/10 08:47:44;;;;;;;8.03;5.47;;;;;;;15.47;91.78;99208.94;5140677;23;20582;-89
2022/11/10 08:50:06;;;;;;;7.70;6.10;;;;;;;15.43;87.94;99205.69;5140966;23;20665;-89
2022/11/10 08:52:29;;;;;;;9.40;6.57;;;;;;;15.32;87.35;99210.00;5140654;23;20595;-89
2022/11/10 08:54:51;;;;;;;9.93;6.30;;;;;;;15.29;87.78;99220.72;5139224;23;20972;-89
2022/11/10 08:57:13;;;;;;;11.00;6.10;;;;;;;15.29;87.11;99223.34;5142486;23;20591;-88
2022/11/10 08:59:36;;;;;;;7.97;6.40;;;;;;;15.38;90.05;99228.84;5139449;23;20616;-88
2022/11/10 09:01:58;;;;;;;16.93;6.50;;;;;;;15.46;87.58;99236.19;5139993;23;20651;-88
2022/11/10 09:04:19;;;;;;;9.77;5.90;;;;;;;15.51;87.29;99228.81;5141997;22;20615;-88
2022/11/10 09:06:41;;;;;;;8.47;5.83;;;;;;;15.55;88.64;99226.69;5142602;23;20626;-87
2022/11/10 09:09:02;;;;;;;8.30;6.13;;;;;;;15.52;88.57;99225.25;5139622;23;21080;-88
2022/11/10 09:11:24;;;;;;;10.50;6.20;;;;;;;15.50;86.15;99241.13;5139441;23;20584;-88
2022/11/10 09:13:45;;;;;;;10.03;6.00;;;;;;;15.55;85.97;99244.28;5140506;23;20580;-88
2022/11/10 09:16:08;;;;;;;10.50;6.57;;;;;;;15.62;86.33;99241.13;5139683;23;20627;-90
2022/11/10 09:18:30;;;;;;;10.37;6.10;;;;;;;15.68;88.32;99234.56;5140653;23;20971;-90
2022/11/10 09:20:53;;;;;;;6.73;4.97;;;;;;;15.72;85.84;99242.13;5140174;23;21116;-89
2022/11/10 09:23:16;;;;;;;7.60;5.00;;;;;;;15.77;88.49;99245.31;5139726;23;20666;-89
2022/11/10 09:25:38;;;;;;;6.20;5.60;;;;;;;15.75;86.76;99249.81;5139976;23;20588;-89
2022/11/10 09:27:59;;;;;;;8.40;5.20;;;;;;;15.78;85.66;99252.22;5140639;23;21099;-89
2022/11/10 09:30:21;;;;;;;9.30;5.40;;;;;;;15.76;87.28;99255.94;5140211;23;20604;-89
2022/11/10 09:32:46;;;;;;;11.77;6.03;;;;;;;15.75;86.77;99244.53;5140129;23;20577;-89
2022/11/10 09:35:07;;;;;;;9.10;6.20;;;;;;;15.68;86.96;99248.59;5139215;23;20693;-90
2022/11/10 09:37:29;;;;;;;10.60;5.57;;;;;;;15.67;86.58;99260.03;5140160;23;20619;-90
2022/11/10 09:39:50;;;;;;;7.97;6.10;;;;;;;15.64;86.22;99262.88;5139048;23;20607;-90
2022/11/10 09:42:27;;;;;;;8.43;5.70;;;;;;;15.67;87.25;99275.00;5139512;23;21206;-90
2022/11/10 09:44:52;;;;;;;10.80;6.03;;;;;;;15.73;87.79;99283.28;5138561;23;21020;-90
2022/11/10 09:47:17;;;;;;;9.63;5.97;;;;;;;15.60;87.69;99287.72;5141292;23;20672;-92
2022/11/10 09:50:02;;;;;;;6.97;5.20;;;;;;;15.56;86.07;99286.25;5139494;23;20581;-89
2022/11/10 09:52:24;;;;;;;9.03;5.43;;;;;;;15.62;87.83;99291.09;5139473;23;20585;-87
2022/11/10 09:54:51;;;;;;;7.23;5.43;;;;;;;15.74;88.47;99292.00;5137018;23;20596;-86
2022/11/10 09:57:16;;;;;;;12.57;5.60;;;;;;;15.82;87.29;99294.97;5140612;22;20664;-86
2022/11/10 09:59:38;;;;;;;22.97;14.93;;;;;;;15.87;88.08;99279.69;5138334;23;20600;-86
2022/11/10 10:02:02;;;;;;;6.67;5.30;;;;;;;15.98;86.43;99293.75;5138713;23;20588;-86
2022/11/10 10:04:43;;;;;;;14.87;8.40;;;;;;;15.97;87.51;99292.09;5138176;23;21243;-86
2022/11/10 10:07:15;;;;;;;7.27;4.53;;;;;;;15.98;87.50;99299.03;5137966;23;20595;-87
2022/11/10 10:09:45;;;;;;;7.53;4.40;;;;;;;16.05;86.73;99300.28;5139115;23;20580;-86
2022/11/10 10:12:19;;;;;;;7.40;5.00;;;;;;;16.12;85.09;99297.09;5140321;22;21352;-86
2022/11/10 10:14:56;;;;;;;19.40;11.60;;;;;;;16.22;85.78;99302.56;5140161;23;20575;-86
2022/11/10 10:17:23;;;;;;;11.70;6.30;;;;;;;16.20;85.03;99299.19;5139324;22;20610;-88
2022/11/10 10:19:52;;;;;;;6.67;4.33;;;;;;;16.23;85.05;99299.84;5137861;23;20613;-88
2022/11/10 10:22:28;;;;;;;7.13;4.50;;;;;;;16.25;85.50;99302.38;5139306;23;20583;-88
2022/11/10 10:24:52;;;;;;;6.97;4.03;;;;;;;16.19;85.45;99294.88;5138387;23;20572;-88
2022/11/10 10:27:20;;;;;;;6.27;3.63;;;;;;;16.16;86.48;99295.09;5140026;23;20568;-88
2022/11/10 10:29:44;;;;;;;7.33;3.80;;;;;;;16.14;84.33;99289.09;5139202;23;20584;-88
2022/11/10 10:32:10;;;;;;;9.10;4.23;;;;;;;16.08;84.17;99289.53;5140245;22;20576;-88
2022/11/10 10:34:33;;;;;;;7.77;3.93;;;;;;;16.12;83.68;99296.28;5138698;23;20582;-88
2022/11/10 10:36:55;;;;;;;6.33;3.40;;;;;;;16.19;84.64;99298.38;5139015;23;20584;-88
2022/11/10 10:39:25;;;;;;;6.43;3.13;;;;;;;16.07;84.17;99293.97;5138377;23;20688;-88
2022/11/10 10:41:47;;;;;;;6.23;3.57;;;;;;;16.15;85.76;99293.41;5138961;23;20588;-88
2022/11/10 10:44:12;;;;;;;7.50;3.63;;;;;;;16.13;83.30;99290.03;5138017;23;21133;-88
2022/11/10 10:46:44;;;;;;;7.80;3.60;;;;;;;16.04;82.08;99294.19;5139355;23;20592;-88
2022/11/10 10:49:14;;;;;;;5.70;3.50;;;;;;;16.06;81.95;99289.63;5139237;23;20592;-87
2022/11/10 10:52:02;;;;;;;6.77;3.20;;;;;;;16.06;82.88;99286.19;5139164;23;20655;-87
2022/11/10 10:54:28;;;;;;;6.43;3.00;;;;;;;16.12;83.33;99286.56;5138227;23;20610;-88
2022/11/10 10:56:49;;;;;;;5.70;2.50;;;;;;;16.22;83.25;99289.41;5138734;23;20590;-88
2022/11/10 10:59:19;;;;;;;5.23;2.90;;;;;;;16.36;82.76;99292.75;5140718;23;20585;-88
2022/11/10 11:01:43;;;;;;;6.27;3.20;;;;;;;16.32;80.38;99293.91;5137867;23;20906;-88
2022/11/10 11:04:25;;;;;;;6.80;2.80;;;;;;;16.39;80.92;99283.78;5139136;23;20623;-88
2022/11/10 11:06:55;;;;;;;6.80;3.00;;;;;;;16.24;80.29;99293.63;5138657;23;20596;-88
2022/11/10 11:09:19;;;;;;;4.80;2.90;;;;;;;16.28;81.48;99292.47;5137385;23;20662;-88
2022/11/10 11:11:44;;;;;;;5.30;2.60;;;;;;;16.30;81.40;99284.47;5137845;23;20575;-88
2022/11/10 11:14:19;;;;;;;4.73;3.10;;;;;;;16.36;81.69;99295.38;5138320;23;20582;-87
2022/11/10 11:16:47;;;;;;;3.73;2.53;;;;;;;16.44;81.05;99292.19;5138252;23;20579;-87
2022/11/10 11:19:09;;;;;;;5.00;2.83;;;;;;;16.47;80.30;99284.91;5163684;23;20595;-87
2022/11/10 11:21:35;;;;;;;5.87;2.73;;;;;;;16.45;80.18;99280.69;5139913;23;20604;-87